ADDS METAR Data INFO
IDs: Format: Raw Decoded Include TAF

Data at: 0345 UTC 18 Oct 2017

KMEB 180252Z AUTO 00000KT 10SM CLR 09/07 A3033 RMK AO2 SLP270 T00890067 51013
KMEB 180152Z AUTO 01004KT 10SM CLR 09/07 A3033 RMK AO2 SLP269 T00890067
KMEB 180052Z AUTO 00000KT 10SM CLR 10/07 A3031 RMK AO2 SLP263 T01000067
KMEB 172352Z AUTO 00000KT 10SM CLR 12/07 A3029 RMK AO2 SLP258 T01170072 10200 20106 53007
KMEB 172252Z AUTO 04005KT 10SM CLR 14/06 A3027 RMK AO2 SLP251 T01390061
KMEB 172152Z AUTO 04007KT 10SM CLR 18/03 A3027 RMK AO2 SLP249 T01830033
KMEB 172052Z AUTO 03007KT 10SM CLR 19/03 A3027 RMK AO2 SLP250 T01940028 56014
KMEB 171952Z AUTO 06009KT 10SM CLR 20/02 A3028 RMK AO2 SLP252 T02000022
KMEB 171852Z AUTO 04011G17KT 10SM CLR 19/02 A3029 RMK AO2 SLP255 T01940017
KMEB 171752Z AUTO 04013G17KT 10SM CLR 19/01 A3031 RMK AO2 SLP263 T01890006 10194 20083 58016
KMEB 171652Z AUTO 05009G19KT 10SM CLR 18/01 A3034 RMK AO2 SLP273 T01830011
KMEB 171552Z AUTO 06014KT 10SM CLR 17/02 A3035 RMK AO2 SLP277 T01720022
KMEB 171452Z AUTO 07013KT 10SM CLR 16/03 A3036 RMK AO2 SLP279 T01560033 51018
KMEB 171352Z AUTO 04012KT 10SM CLR 13/06 A3035 RMK AO2 SLP277 T01280056
KMEB 171252Z AUTO 03008KT 10SM CLR 10/06 A3033 RMK AO2 SLP271 T01000056
KMEB 171152Z AUTO 02006KT 10SM CLR 08/06 A3031 RMK AO2 SLP262 70007 T00830056 10100 20083 53021
KMEB 171052Z AUTO 03008KT 10SM CLR 09/06 A3028 RMK AO2 SLP252 T00890056
KMEB 170952Z AUTO 02007KT 10SM CLR 09/06 A3026 RMK AO2 SLP246 T00890061
KMEB 170852Z AUTO 03006KT 10SM CLR 09/06 A3024 RMK AO2 SLP240 T00890061 53006
KMEB 170752Z AUTO 02007KT 10SM CLR 10/07 A3023 RMK AO2 SLP236 T01000072
KMEB 170652Z AUTO 02006KT 10SM CLR 10/08 A3023 RMK AO2 SLP236 T01000078
KMEB 170552Z AUTO 36006KT 10SM CLR 10/08 A3023 RMK AO2 SLP234 T01000083 10144 20100 53003
KMEB 170452Z AUTO 01006KT 10SM CLR 11/08 A3022 RMK AO2 SLP232 T01060083 402390106
KMEB 170352Z AUTO 01006KT 10SM CLR 12/09 A3022 RMK AO2 SLP233 T01220094
KMEB 170252Z AUTO 02008KT 10SM BKN047 OVC055 13/12 A3022 RMK AO2 SLP231 T01330117 53025
KMEB 170152Z AUTO 36004KT 10SM FEW050 13/12 A3019 RMK AO2 SLP222 T01280122
KMEB 170052Z AUTO 35003KT 10SM CLR 13/13 A3017 RMK AO2 SLP214 T01330128
KMEB 162352Z AUTO 01004KT 10SM FEW043 14/13 A3014 RMK AO2 SLP206 60002 T01440133 10178 20144 53022
KMEB 162252Z AUTO 06005KT 10SM BKN044 16/14 A3012 RMK AO2 SLP197 T01610139
KMEB 162152Z AUTO 07009KT 10SM BKN036 OVC048 17/14 A3009 RMK AO2 SLP190 T01720139
KMEB 162052Z AUTO 02010KT 10SM OVC030 17/14 A3008 RMK AO2 SLP184 60002 T01720144 53006
KMEB 161952Z AUTO 03010G18KT 10SM OVC039 16/13 A3007 RMK AO2 SLP180 T01610133
KMEB 161908Z AUTO 02016G21KT 10SM OVC030 16/14 A3006 RMK AO2 T01560139
KMEB 161852Z AUTO 01009KT 10SM BKN029 OVC036 16/13 A3006 RMK AO2 RAE14 SLP178 P0002 T01560133
KMEB 161823Z AUTO 01008KT 10SM FEW025 OVC036 15/13 A3007 RMK AO2 RAE14 P0002 T01500133
KMEB 161816Z AUTO 02011KT 10SM BKN027 OVC038 15/14 A3007 RMK AO2 RAE14 P0002 T01500139
KMEB 161805Z AUTO 01009KT 6SM -RA BR SCT026 OVC036 15/14 A3008 RMK AO2 P0002 T01500139
KMEB 161752Z AUTO 02011KT 7SM -RA SCT024 BKN029 OVC035 15/13 A3007 RMK AO2 RAE32B34 SLP182 P0001 60005 T01500133 10239 20150 51016
KMEB 161733Z AUTO 01013G21KT 10SM FEW014 BKN027 OVC044 16/14 A3008 RMK AO2 RAE32 P0001 T01560139
KMEB 161652Z AUTO 01012KT 5SM -RA BR FEW015 BKN070 OVC090 17/15 A3007 RMK AO2 RAE04B28 SLP182 P0002 T01670150
KMEB 161613Z AUTO 03014G24KT 10SM SCT014 BKN070 OVC100 18/15 A3006 RMK AO2 RAE04 P0000 T01780150
KMEB 161552Z AUTO 02021G26KT 4SM RA BR SCT012 OVC016 19/18 A3005 RMK AO2 PK WND 02026/1552 RAB28 SLP174 P0002 T01940178